Time;durP1;ratioP1;P1;durP2;ratioP2;P2;SDS_P1;SDS_P2;PMS_P1;PMS_P2;Temp;Humidity;BMP_temperature;BMP_pressure;BME280_temperature;BME280_humidity;BME280_pressure;Samples;Min_cycle;Max_cycle;Signal;HPM_P1;HPM_P2
2022/11/07 00:02:22;;;;;;;5.82;0.65;;;11.10;99.90;;;;;;5032718;28;20034;-76
2022/11/07 00:04:47;;;;;;;2.45;0.73;;;11.10;99.90;;;;;;5032696;28;20021;-76
2022/11/07 00:07:13;;;;;;;2.30;0.45;;;11.00;99.90;;;;;;5032690;28;20022;-75
2022/11/07 00:09:38;;;;;;;2.92;0.35;;;11.00;99.90;;;;;;5032738;28;20022;-76
2022/11/07 00:12:04;;;;;;;2.85;0.90;;;11.00;99.90;;;;;;5014796;28;20095;-76
2022/11/07 00:14:30;;;;;;;7.55;0.73;;;11.00;99.90;;;;;;5016130;28;20404;-76
2022/11/07 00:16:56;;;;;;;5.03;0.40;;;10.90;99.90;;;;;;5036188;28;20021;-76
2022/11/07 00:19:22;;;;;;;2.20;0.80;;;10.90;99.90;;;;;;5036164;28;20018;-76
2022/11/07 00:21:48;;;;;;;5.82;0.43;;;11.00;99.90;;;;;;5035930;28;20036;-75
2022/11/07 00:24:18;;;;;;;4.15;0.75;;;11.00;99.90;;;;;;5035928;28;20029;-76
2022/11/07 00:26:45;;;;;;;4.22;1.55;;;11.00;99.90;;;;;;5018329;28;20030;-75
2022/11/07 00:29:13;;;;;;;3.33;0.60;;;11.00;99.90;;;;;;5035922;28;20030;-75
2022/11/07 00:31:38;;;;;;;5.97;0.20;;;11.10;99.90;;;;;;5018142;28;20104;-76
2022/11/07 00:34:04;;;;;;;6.22;0.88;;;11.10;99.90;;;;;;5035878;28;20511;-76
2022/11/07 00:36:30;;;;;;;4.63;0.50;;;11.10;99.90;;;;;;5035777;28;20036;-76
2022/11/07 00:38:55;;;;;;;3.50;0.55;;;11.00;99.90;;;;;;5035706;28;20496;-76
2022/11/07 00:41:22;;;;;;;9.30;2.05;;;11.00;99.90;;;;;;5035628;28;20079;-75
2022/11/07 00:43:47;;;;;;;2.38;0.30;;;11.00;99.90;;;;;;5035579;28;20032;-75
2022/11/07 00:46:14;;;;;;;1.77;0.47;;;11.00;99.90;;;;;;5035591;28;20029;-75
2022/11/07 00:48:40;;;;;;;5.40;0.73;;;11.00;99.90;;;;;;5017907;28;20033;-76
2022/11/07 00:51:12;;;;;;;4.82;0.60;;;11.00;99.90;;;;;;5035371;28;20033;-75
2022/11/07 00:53:38;;;;;;;4.15;0.47;;;11.30;99.90;;;;;;5035476;28;20021;-76
2022/11/07 00:56:09;;;;;;;6.15;0.63;;;10.90;99.90;;;;;;5035464;28;20373;-75
2022/11/07 00:58:35;;;;;;;6.13;1.13;;;10.90;99.90;;;;;;5035631;28;20022;-75
2022/11/07 01:01:13;;;;;;;2.38;0.15;;;10.90;99.90;;;;;;5035373;28;20372;-75
2022/11/07 01:06:25;;;;;;;6.72;0.70;;;11.00;99.90;;;;;;5035499;28;20040;-75
2022/11/07 01:08:56;;;;;;;5.82;0.80;;;10.90;99.90;;;;;;5035135;28;20022;-75
2022/11/07 01:11:23;;;;;;;5.65;0.70;;;11.20;99.90;;;;;;5035107;28;20037;-75
2022/11/07 01:13:49;;;;;;;8.63;0.85;;;10.90;99.90;;;;;;5035002;28;20045;-76
2022/11/07 01:16:14;;;;;;;6.60;0.57;;;10.90;99.90;;;;;;5035076;28;20018;-75
2022/11/07 01:18:40;;;;;;;4.25;0.10;;;10.90;99.90;;;;;;5035022;28;20025;-76
2022/11/07 01:21:07;;;;;;;7.22;0.25;;;10.90;99.90;;;;;;5034974;28;20071;-76
2022/11/07 01:23:34;;;;;;;5.18;0.45;;;10.90;99.90;;;;;;5017103;28;20403;-75
2022/11/07 01:26:07;;;;;;;11.45;0.32;;;10.90;99.90;;;;;;5033432;28;20041;-76
2022/11/07 01:28:34;;;;;;;5.57;0.50;;;10.90;99.90;;;;;;5034902;28;20385;-76
2022/11/07 01:31:06;;;;;;;4.22;0.30;;;11.00;99.90;;;;;;5034760;28;20492;-75
2022/11/07 01:33:32;;;;;;;6.25;0.43;;;11.00;99.90;;;;;;5034746;28;20083;-76
2022/11/07 01:36:01;;;;;;;3.22;0.10;;;11.00;99.90;;;;;;5034639;28;20022;-75
2022/11/07 01:38:27;;;;;;;8.32;0.25;;;11.00;99.90;;;;;;5034617;28;20084;-76
2022/11/07 01:44:05;;;;;;;3.75;0.10;;;11.00;99.90;;;;;;5035439;28;20035;-76
2022/11/07 01:46:37;;;;;;;7.47;0.68;;;11.10;99.90;;;;;;5031556;28;20041;-75
2022/11/07 01:49:20;;;;;;;2.33;0.30;;;11.10;99.90;;;;;;5035075;28;20033;-75
2022/11/07 01:51:54;;;;;;;4.97;0.50;;;11.00;99.90;;;;;;5016510;28;20029;-76
2022/11/07 01:54:25;;;;;;;5.43;0.15;;;11.00;99.90;;;;;;5034268;28;20029;-75
2022/11/07 01:56:52;;;;;;;6.03;0.10;;;11.10;99.90;;;;;;5034868;28;20079;-76
2022/11/07 01:59:22;;;;;;;7.60;0.52;;;11.10;99.90;;;;;;5034183;28;20025;-76
2022/11/07 02:01:48;;;;;;;6.03;0.75;;;11.10;99.90;;;;;;5034218;28;20031;-76
2022/11/07 02:04:16;;;;;;;4.47;0.65;;;11.10;99.90;;;;;;5034104;28;20112;-76
2022/11/07 02:06:46;;;;;;;3.88;0.38;;;11.10;99.90;;;;;;5034169;28;20022;-75
2022/11/07 02:09:12;;;;;;;16.58;0.90;;;11.30;99.90;;;;;;5033965;28;20025;-75
2022/11/07 02:11:37;;;;;;;3.70;0.70;;;11.10;99.90;;;;;;5016169;28;20018;-75
2022/11/07 02:14:03;;;;;;;4.35;0.88;;;11.10;99.90;;;;;;5033845;28;20092;-76
2022/11/07 02:16:31;;;;;;;4.00;0.50;;;11.00;99.90;;;;;;5033939;28;20024;-76
2022/11/07 02:18:57;;;;;;;7.23;1.03;;;11.00;99.90;;;;;;5016209;28;20021;-75
2022/11/07 02:21:41;;;;;;;13.38;0.73;;;11.00;99.90;;;;;;5033910;28;20022;-76
2022/11/07 02:24:06;;;;;;;4.05;1.08;;;11.00;99.90;;;;;;5034014;28;20060;-76
2022/11/07 02:26:34;;;;;;;5.53;0.50;;;10.90;99.90;;;;;;5033629;28;20496;-75
2022/11/07 02:29:03;;;;;;;4.40;0.00;;;11.10;99.90;;;;;;5033901;28;20057;-75
2022/11/07 02:31:29;;;;;;;;;;;11.90;99.90;;;;;;5034635;28;20284;-76
2022/11/07 02:33:54;;;;;;;9.15;0.52;;;10.80;99.90;;;;;;5033710;28;19934;-75
2022/11/07 02:36:23;;;;;;;6.70;0.52;;;10.80;99.90;;;;;;5033378;28;20096;-76
2022/11/07 02:38:56;;;;;;;5.57;0.77;;;10.80;99.90;;;;;;5033422;28;20026;-76
2022/11/07 02:41:33;;;;;;;3.25;0.20;;;10.80;99.90;;;;;;5034044;28;20052;-75
2022/11/07 02:44:06;;;;;;;3.92;0.38;;;10.70;99.90;;;;;;5033552;28;20025;-75
2022/11/07 02:46:32;;;;;;;7.18;0.20;;;10.70;99.90;;;;;;5033496;28;20430;-76
2022/11/07 02:48:59;;;;;;;3.35;0.30;;;10.80;99.90;;;;;;5015751;28;20156;-75
2022/11/07 02:51:25;;;;;;;10.38;1.25;;;10.70;99.90;;;;;;5033276;28;20093;-76
2022/11/07 02:53:51;;;;;;;5.53;0.73;;;10.70;99.90;;;;;;5033942;28;20045;-76
2022/11/07 02:56:17;;;;;;;2.78;0.43;;;10.70;99.90;;;;;;5015485;28;20021;-76
2022/11/07 02:58:43;;;;;;;4.07;0.30;;;10.70;99.90;;;;;;5033322;28;20119;-76
2022/11/07 03:01:09;;;;;;;2.15;0.65;;;10.70;99.90;;;;;;5015678;28;20057;-75
2022/11/07 03:03:37;;;;;;;3.45;0.30;;;10.70;99.90;;;;;;5033477;28;20053;-75
2022/11/07 03:06:04;;;;;;;6.43;1.27;;;10.70;99.90;;;;;;5033209;28;20484;-75
2022/11/07 03:08:30;;;;;;;3.75;0.68;;;10.70;99.90;;;;;;5033134;28;20036;-75
2022/11/07 03:10:56;;;;;;;5.20;0.20;;;10.80;99.90;;;;;;5033670;28;20025;-75
2022/11/07 03:13:22;;;;;;;3.90;0.63;;;11.90;99.90;;;;;;5015521;28;20025;-76
2022/11/07 03:15:49;;;;;;;8.98;0.45;;;10.80;99.90;;;;;;5033191;28;20022;-75
2022/11/07 03:18:15;;;;;;;3.42;0.70;;;10.80;99.90;;;;;;5033170;28;20026;-76
2022/11/07 03:20:40;;;;;;;4.43;0.55;;;11.10;99.90;;;;;;5015418;28;20037;-76
2022/11/07 03:23:06;;;;;;;5.97;0.50;;;10.90;99.90;;;;;;5015415;28;20139;-75
2022/11/07 03:25:31;;;;;;;6.80;0.55;;;10.90;99.90;;;;;;5015535;28;20396;-76
2022/11/07 03:27:57;;;;;;;8.85;0.82;;;10.90;99.90;;;;;;5033081;28;20076;-75
2022/11/07 03:30:23;;;;;;;6.07;0.40;;;10.90;99.90;;;;;;5033022;28;20027;-76
2022/11/07 03:32:51;;;;;;;9.90;0.80;;;10.90;99.90;;;;;;5015293;28;20029;-76
2022/11/07 03:35:17;;;;;;;6.15;0.40;;;10.90;99.90;;;;;;5032952;28;20025;-76
2022/11/07 03:37:47;;;;;;;4.47;0.50;;;10.90;99.90;;;;;;5032967;28;20358;-75
2022/11/07 03:40:13;;;;;;;4.80;0.25;;;10.90;99.90;;;;;;5033229;28;20076;-76
2022/11/07 03:42:39;;;;;;;8.15;0.45;;;10.80;99.90;;;;;;5033394;28;20057;-76
2022/11/07 03:45:06;;;;;;;4.70;0.15;;;10.90;99.90;;;;;;5015211;28;20365;-76
2022/11/07 03:47:36;;;;;;;5.35;0.30;;;10.80;99.90;;;;;;5015110;28;20033;-76
2022/11/07 03:50:02;;;;;;;6.82;0.20;;;10.90;99.90;;;;;;5035318;28;20022;-76
2022/11/07 03:52:28;;;;;;;1.75;0.20;;;10.90;99.90;;;;;;5036605;28;20117;-75
2022/11/07 03:54:54;;;;;;;8.10;0.57;;;10.80;99.90;;;;;;5036467;28;20080;-76
2022/11/07 03:57:19;;;;;;;5.70;0.30;;;10.80;99.90;;;;;;5037184;28;20083;-76
2022/11/07 03:59:45;;;;;;;3.65;1.02;;;10.70;99.90;;;;;;5036457;28;20402;-75
2022/11/07 04:02:10;;;;;;;6.80;0.50;;;10.70;99.90;;;;;;5036562;28;20021;-76
2022/11/07 04:04:36;;;;;;;2.40;0.35;;;10.70;99.90;;;;;;5036304;28;20026;-75
2022/11/07 04:07:01;;;;;;;7.13;0.68;;;10.70;99.90;;;;;;5036358;28;20433;-76
2022/11/07 04:09:27;;;;;;;6.85;0.90;;;10.80;99.90;;;;;;5036314;28;20032;-75
2022/11/07 04:17:20;;;;;;;2.83;0.20;;;10.80;99.90;;;;;;5036438;28;20068;-75
2022/11/07 04:19:48;;;;;;;1.70;0.22;;;10.80;99.90;;;;;;5036699;28;20360;-76
2022/11/07 04:22:14;;;;;;;10.32;0.55;;;10.80;99.90;;;;;;5036047;28;20029;-75
2022/11/07 04:24:43;;;;;;;7.72;1.20;;;10.80;99.90;;;;;;5036241;28;20030;-75
2022/11/07 04:29:54;;;;;;;10.40;0.70;;;10.90;99.90;;;;;;5036233;28;19912;-76
2022/11/07 04:32:20;;;;;;;4.55;0.35;;;10.80;99.90;;;;;;5035785;28;20026;-76
2022/11/07 04:34:46;;;;;;;3.30;0.30;;;10.90;99.90;;;;;;5036169;28;20477;-76
2022/11/07 04:37:11;;;;;;;7.30;0.98;;;10.90;99.90;;;;;;5017988;28;20032;-76
2022/11/07 04:39:37;;;;;;;6.70;0.90;;;10.90;99.90;;;;;;5018031;28;20140;-76
2022/11/07 04:42:02;;;;;;;4.72;0.75;;;10.90;99.90;;;;;;5017924;28;20478;-76
2022/11/07 04:44:28;;;;;;;5.75;0.32;;;11.00;99.90;;;;;;5035677;28;20101;-76
2022/11/07 04:46:53;;;;;;;9.18;0.88;;;11.00;99.90;;;;;;5035558;28;20025;-76
2022/11/07 04:49:19;;;;;;;8.55;0.82;;;11.00;99.90;;;;;;5036115;28;20033;-76
2022/11/07 04:51:44;;;;;;;1.92;0.30;;;10.90;99.90;;;;;;5035554;28;20029;-76
2022/11/07 04:54:12;;;;;;;10.23;1.38;;;10.90;99.90;;;;;;5017616;28;20053;-76
2022/11/07 04:56:38;;;;;;;9.20;0.63;;;10.90;99.90;;;;;;5035533;28;20100;-75
2022/11/07 04:59:03;;;;;;;3.60;0.60;;;10.90;99.90;;;;;;5017646;28;20037;-76
2022/11/07 05:01:29;;;;;;;8.35;1.33;;;10.90;99.90;;;;;;5034998;28;20052;-76
2022/11/07 05:03:54;;;;;;;9.93;0.82;;;11.00;99.90;;;;;;5035198;28;20029;-76
2022/11/07 05:06:20;;;;;;;8.82;1.42;;;11.00;99.90;;;;;;5035217;28;20071;-76
2022/11/07 05:08:46;;;;;;;13.18;0.60;;;11.00;99.90;;;;;;5017511;28;20417;-76
2022/11/07 05:11:12;;;;;;;9.13;0.30;;;11.70;99.90;;;;;;5035066;28;20029;-76
2022/11/07 05:13:38;;;;;;;9.55;1.17;;;11.10;99.90;;;;;;5034997;28;20025;-75
2022/11/07 05:16:04;;;;;;;5.80;0.80;;;11.00;99.90;;;;;;5017148;28;20017;-76
2022/11/07 05:18:29;;;;;;;5.70;0.22;;;11.00;99.90;;;;;;5035048;28;20491;-76
2022/11/07 05:20:55;;;;;;;8.43;0.55;;;11.00;99.90;;;;;;5034879;28;20036;-76
2022/11/07 05:23:21;;;;;;;10.65;1.23;;;11.00;99.90;;;;;;5034970;28;20028;-76
2022/11/07 05:25:53;;;;;;;13.57;1.60;;;11.00;99.90;;;;;;5016943;28;20029;-75
2022/11/07 05:28:23;;;;;;;15.45;2.03;;;11.00;99.90;;;;;;5017104;28;20164;-76
2022/11/07 05:30:48;;;;;;;14.25;0.90;;;11.20;99.90;;;;;;5034703;28;20025;-76
2022/11/07 05:33:17;;;;;;;7.20;0.65;;;11.10;99.90;;;;;;5017038;28;20104;-76
2022/11/07 05:35:44;;;;;;;6.82;0.98;;;11.00;99.90;;;;;;5034584;28;20025;-76
2022/11/07 05:38:10;;;;;;;8.73;0.47;;;11.00;99.90;;;;;;5034681;28;20029;-76
2022/11/07 05:40:38;;;;;;;7.47;0.40;;;11.40;99.90;;;;;;5034572;28;20025;-76
2022/11/07 05:43:06;;;;;;;10.63;0.88;;;11.10;99.90;;;;;;5016827;28;20029;-76
2022/11/07 05:45:36;;;;;;;9.30;0.10;;;11.20;99.90;;;;;;5034408;28;20542;-76
2022/11/07 05:48:04;;;;;;;6.78;0.40;;;11.20;99.90;;;;;;5016719;28;20024;-76
2022/11/07 05:50:30;;;;;;;14.68;1.60;;;11.30;99.90;;;;;;5034304;28;20057;-76
2022/11/07 05:52:56;;;;;;;5.32;0.30;;;11.30;99.90;;;;;;5034543;28;20076;-76
2022/11/07 05:55:23;;;;;;;13.75;0.70;;;11.30;99.90;;;;;;5034253;28;20095;-76
2022/11/07 05:57:48;;;;;;;9.13;0.40;;;11.20;99.90;;;;;;5016430;28;20022;-75
2022/11/07 06:00:15;;;;;;;12.20;0.70;;;11.20;99.90;;;;;;5034159;28;20048;-76
2022/11/07 06:02:41;;;;;;;13.60;1.73;;;11.20;99.90;;;;;;5034270;28;20400;-76
2022/11/07 06:05:07;;;;;;;5.45;0.35;;;11.30;99.90;;;;;;5034037;28;20022;-76
2022/11/07 06:07:37;;;;;;;7.60;0.60;;;11.30;99.90;;;;;;5034133;28;20503;-76
2022/11/07 06:10:05;;;;;;;9.63;0.95;;;11.30;99.90;;;;;;5034210;28;20108;-76
2022/11/07 06:12:30;;;;;;;5.80;0.95;;;11.30;99.90;;;;;;5015562;28;20033;-77
2022/11/07 06:14:56;;;;;;;10.30;0.70;;;11.30;99.90;;;;;;5033859;28;20022;-77
2022/11/07 06:17:22;;;;;;;9.65;1.35;;;11.30;99.90;;;;;;5033836;28;20014;-76
2022/11/07 06:19:47;;;;;;;10.10;1.15;;;11.40;99.90;;;;;;5033912;28;20025;-76
2022/11/07 06:22:13;;;;;;;15.02;1.50;;;11.40;99.90;;;;;;5016388;28;20473;-76
2022/11/07 06:24:38;;;;;;;9.07;0.47;;;11.40;99.90;;;;;;5033668;28;20022;-77
2022/11/07 06:27:04;;;;;;;8.82;1.08;;;11.40;99.90;;;;;;5033605;28;20030;-76
2022/11/07 06:29:29;;;;;;;11.00;1.38;;;11.40;99.90;;;;;;5033729;28;20033;-77
2022/11/07 06:31:55;;;;;;;9.68;0.60;;;11.50;99.90;;;;;;5016447;28;20022;-77
2022/11/07 06:34:20;;;;;;;4.72;0.40;;;11.40;99.90;;;;;;5033757;28;20507;-77
2022/11/07 06:36:50;;;;;;;9.20;0.57;;;11.50;99.90;;;;;;5033641;28;20527;-76
2022/11/07 06:39:16;;;;;;;15.30;1.65;;;11.50;99.90;;;;;;5033640;28;20032;-77
2022/11/07 06:41:41;;;;;;;7.07;0.57;;;11.50;99.90;;;;;;5015783;28;20025;-76
2022/11/07 06:44:07;;;;;;;10.07;1.42;;;11.50;99.90;;;;;;5015702;28;20481;-77
2022/11/07 06:46:32;;;;;;;14.38;0.88;;;11.50;99.90;;;;;;5033394;28;20017;-76
2022/11/07 06:48:58;;;;;;;9.80;0.70;;;11.60;99.90;;;;;;5034003;28;20021;-76
2022/11/07 06:51:23;;;;;;;4.82;0.70;;;11.60;99.90;;;;;;5015640;28;20112;-75
2022/11/07 06:53:49;;;;;;;5.25;0.40;;;11.60;99.90;;;;;;5033120;28;20049;-75
2022/11/07 06:56:15;;;;;;;11.05;1.58;;;11.60;99.90;;;;;;5033242;28;20508;-73
2022/11/07 06:58:41;;;;;;;11.25;1.08;;;11.70;99.90;;;;;;5033083;28;20029;-73
2022/11/07 07:01:11;;;;;;;8.70;1.25;;;11.80;99.90;;;;;;5015541;28;20026;-71
2022/11/07 07:03:37;;;;;;;14.98;2.25;;;11.60;99.90;;;;;;5015483;28;20416;-73
2022/11/07 07:06:05;;;;;;;7.32;0.75;;;11.70;99.90;;;;;;5015308;28;20028;-73
2022/11/07 07:08:31;;;;;;;6.07;1.15;;;11.70;99.90;;;;;;5033082;28;20060;-73
2022/11/07 07:11:05;;;;;;;7.95;0.75;;;11.70;99.90;;;;;;5015229;28;20026;-72
2022/11/07 07:13:31;;;;;;;3.97;0.65;;;;;;;;;;5015476;28;20120;-72
2022/11/07 07:15:57;;;;;;;11.27;0.35;;;11.70;99.90;;;;;;5015121;28;20463;-72
2022/11/07 07:18:23;;;;;;;14.75;0.80;;;11.80;99.90;;;;;;5032945;28;20056;-72
2022/11/07 07:20:49;;;;;;;8.30;0.95;;;11.80;99.90;;;;;;5033012;28;20068;-73
2022/11/07 07:23:17;;;;;;;10.93;1.45;;;11.80;99.90;;;;;;5033993;28;20029;-72
2022/11/07 07:25:43;;;;;;;12.45;1.80;;;11.90;99.90;;;;;;5040558;23;20052;-75
2022/11/07 07:28:08;;;;;;;8.18;1.33;;;11.90;99.90;;;;;;5017243;28;20032;-75
2022/11/07 07:30:34;;;;;;;13.75;2.95;;;11.90;99.90;;;;;;5017791;28;20089;-75
2022/11/07 07:33:02;;;;;;;7.22;0.73;;;11.90;99.90;;;;;;5017170;28;20028;-75
2022/11/07 07:35:27;;;;;;;6.43;1.10;;;11.90;99.90;;;;;;5017083;28;20026;-75
2022/11/07 07:37:53;;;;;;;8.32;0.22;;;12.00;99.90;;;;;;5017126;28;20431;-75
2022/11/07 07:40:19;;;;;;;14.73;0.70;;;12.00;99.90;;;;;;4999435;28;20052;-75
2022/11/07 07:42:45;;;;;;;10.15;1.88;;;12.00;99.90;;;;;;5017041;28;20057;-75
2022/11/07 07:45:12;;;;;;;7.88;0.90;;;12.10;99.90;;;;;;4999355;28;20068;-75
2022/11/07 07:47:38;;;;;;;7.97;0.20;;;12.90;99.90;;;;;;5016982;28;20068;-74
2022/11/07 07:50:05;;;;;;;11.73;0.35;;;12.10;99.90;;;;;;5016816;28;20081;-75
2022/11/07 07:52:31;;;;;;;11.18;1.17;;;12.10;99.90;;;;;;5016719;28;20030;-75
2022/11/07 07:54:56;;;;;;;6.07;0.28;;;12.10;99.90;;;;;;5016739;28;20021;-75
2022/11/07 07:57:22;;;;;;;9.23;0.77;;;12.20;99.90;;;;;;5017234;28;20072;-75
2022/11/07 07:59:47;;;;;;;8.70;0.98;;;12.20;99.90;;;;;;5016686;28;20030;-75
2022/11/07 08:02:13;;;;;;;13.48;0.90;;;12.20;99.90;;;;;;4999070;28;20120;-75
2022/11/07 08:04:42;;;;;;;8.10;0.60;;;12.30;99.90;;;;;;5016551;28;20030;-75
2022/11/07 08:07:08;;;;;;;8.75;0.55;;;12.30;99.90;;;;;;5016544;28;20439;-74
2022/11/07 08:09:36;;;;;;;7.70;0.68;;;12.30;99.90;;;;;;5016505;28;20030;-75
2022/11/07 08:12:03;;;;;;;6.78;1.00;;;12.30;99.90;;;;;;5016980;28;20108;-75
2022/11/07 08:14:29;;;;;;;7.10;0.20;;;12.40;99.90;;;;;;5016379;28;20018;-75
2022/11/07 08:16:55;;;;;;;6.57;0.40;;;12.40;99.90;;;;;;5016949;28;20499;-73
2022/11/07 08:19:21;;;;;;;14.45;1.30;;;12.40;99.90;;;;;;5016437;28;20026;-73
2022/11/07 08:21:46;;;;;;;7.28;0.77;;;12.60;99.90;;;;;;5016297;28;20481;-73
2022/11/07 08:24:12;;;;;;;6.60;1.30;;;12.60;99.90;;;;;;4998683;28;20512;-73
2022/11/07 08:26:38;;;;;;;10.35;0.52;;;12.60;99.90;;;;;;5016132;28;20049;-73
2022/11/07 08:29:03;;;;;;;5.25;0.77;;;12.70;99.90;;;;;;4998566;28;20033;-73
2022/11/07 08:31:29;;;;;;;9.90;1.70;;;12.70;99.90;;;;;;5016080;28;20026;-73
2022/11/07 08:33:59;;;;;;;6.55;0.93;;;12.70;99.90;;;;;;5016527;28;20056;-73
2022/11/07 08:36:25;;;;;;;10.55;0.93;;;12.70;99.90;;;;;;5015447;28;20073;-73
2022/11/07 08:38:51;;;;;;;5.88;0.45;;;12.80;99.90;;;;;;5016001;28;20358;-73
2022/11/07 08:41:17;;;;;;;4.70;0.40;;;12.70;99.90;;;;;;4998369;28;20052;-73
2022/11/07 08:43:43;;;;;;;6.07;0.20;;;12.80;99.90;;;;;;5015829;28;20540;-73
2022/11/07 08:46:08;;;;;;;8.10;0.85;;;12.70;99.90;;;;;;4998284;28;20048;-73
2022/11/07 08:48:34;;;;;;;8.13;1.40;;;12.70;99.90;;;;;;5015718;28;20030;-73
2022/11/07 08:51:01;;;;;;;12.18;0.95;;;12.70;99.90;;;;;;5015622;28;20018;-73
2022/11/07 08:53:28;;;;;;;7.03;0.20;;;12.70;99.90;;;;;;5015767;28;20071;-73
2022/11/07 08:56:05;;;;;;;9.32;0.75;;;12.70;99.90;;;;;;4997949;28;20014;-74
2022/11/07 08:58:31;;;;;;;3.53;0.00;;;12.80;99.90;;;;;;5015625;28;20033;-73
2022/11/07 09:00:56;;;;;;;10.70;0.32;;;12.70;99.90;;;;;;5016058;28;20022;-73
2022/11/07 09:03:22;;;;;;;10.52;0.75;;;12.80;99.90;;;;;;5015601;28;20084;-73
2022/11/07 09:05:48;;;;;;;9.63;0.57;;;12.80;99.90;;;;;;5015307;28;20156;-73
2022/11/07 09:08:13;;;;;;;6.20;0.15;;;12.90;99.90;;;;;;4997894;28;20076;-73
2022/11/07 09:10:39;;;;;;;8.02;0.30;;;12.90;99.90;;;;;;5015296;28;20041;-73
2022/11/07 09:13:04;;;;;;;3.53;0.40;;;12.90;99.90;;;;;;5015333;28;20022;-73
2022/11/07 09:15:30;;;;;;;5.18;0.28;;;12.90;99.90;;;;;;4997614;28;20026;-73
2022/11/07 09:18:02;;;;;;;7.80;0.57;;;12.90;99.90;;;;;;4997818;28;20488;-73
2022/11/07 09:20:27;;;;;;;4.93;0.52;;;13.00;99.90;;;;;;4999091;28;20057;-76
2022/11/07 09:22:57;;;;;;;4.75;0.38;;;12.90;99.90;;;;;;5015938;28;20058;-76
2022/11/07 09:25:22;;;;;;;5.93;0.10;;;13.00;99.90;;;;;;5015955;28;20029;-76
2022/11/07 09:27:50;;;;;;;8.32;0.30;;;14.00;99.90;;;;;;5017040;28;20033;-73
2022/11/07 09:30:22;;;;;;;4.75;0.77;;;13.10;99.90;;;;;;4998789;28;20116;-76
2022/11/07 09:32:47;;;;;;;9.85;0.90;;;13.20;99.90;;;;;;5016278;28;20389;-77
2022/11/07 09:35:13;;;;;;;6.95;0.85;;;13.30;99.90;;;;;;4998746;28;20014;-76
2022/11/07 09:37:42;;;;;;;7.00;1.15;;;13.30;99.90;;;;;;4998832;28;20502;-76
2022/11/07 09:40:15;;;;;;;;;;;13.30;99.90;;;;;;4998762;28;20018;-76
2022/11/07 09:42:50;;;;;;;5.47;0.65;;;13.30;99.90;;;;;;5015674;28;19906;-74
2022/11/07 09:45:15;;;;;;;12.32;1.27;;;13.30;99.90;;;;;;4998202;28;20045;-76
2022/11/07 09:47:49;;;;;;;7.70;0.43;;;13.30;99.90;;;;;;5014454;28;20026;-76
2022/11/07 09:50:24;;;;;;;4.00;0.38;;;13.30;99.90;;;;;;5015422;28;20022;-76
2022/11/07 09:53:07;;;;;;;5.72;0.60;;;13.30;99.90;;;;;;4998091;28;20424;-74
2022/11/07 09:55:40;;;;;;;6.80;0.10;;;13.30;99.90;;;;;;4997749;28;20022;-74
2022/11/07 09:58:20;;;;;;;9.50;0.60;;;13.30;99.90;;;;;;5015534;28;20097;-74
2022/11/07 10:00:46;;;;;;;5.65;0.25;;;13.30;99.90;;;;;;5016096;28;20021;-75
2022/11/07 10:03:11;;;;;;;4.55;0.43;;;13.30;99.90;;;;;;5015357;28;20147;-75
2022/11/07 10:05:59;;;;;;;3.65;0.28;;;13.30;99.90;;;;;;5015434;28;20025;-75
2022/11/07 10:08:43;;;;;;;10.38;0.32;;;13.30;99.90;;;;;;5072810;28;20371;-76
2022/11/07 10:11:29;;;;;;;9.20;0.10;;;13.40;99.90;;;;;;5071981;28;20039;-76
2022/11/07 10:14:13;;;;;;;4.78;0.15;;;13.40;99.90;;;;;;5071782;28;20080;-76
2022/11/07 10:16:46;;;;;;;6.88;0.17;;;13.40;99.90;;;;;;5070553;28;20568;-76
2022/11/07 10:19:26;;;;;;;6.32;0.47;;;13.40;99.90;;;;;;5070839;28;20480;-76
2022/11/07 10:22:17;;;;;;;8.38;0.80;;;13.40;99.90;;;;;;5071642;28;20028;-76
2022/11/07 10:25:05;;;;;;;9.25;0.47;;;13.40;99.90;;;;;;5070133;28;20025;-76
2022/11/07 10:27:31;;;;;;;6.32;0.20;;;13.40;99.90;;;;;;5070132;28;20025;-76
2022/11/07 10:29:58;;;;;;;7.28;0.40;;;13.40;99.90;;;;;;5071517;28;20025;-76
2022/11/07 10:32:51;;;;;;;6.30;0.35;;;13.40;99.90;;;;;;5072092;28;20028;-76
2022/11/07 10:35:34;;;;;;;5.35;0.30;;;13.50;99.90;;;;;;5071366;28;20058;-76
2022/11/07 10:38:13;;;;;;;4.13;0.57;;;13.50;99.90;;;;;;5071815;28;20036;-76
2022/11/07 10:40:39;;;;;;;;;;;13.50;99.90;;;;;;5070610;28;20124;-76
2022/11/07 10:43:11;;;;;;;7.45;0.35;;;13.60;99.90;;;;;;5070070;28;19966;-76
2022/11/07 10:45:38;;;;;;;4.75;0.45;;;13.60;99.90;;;;;;5071457;28;20020;-76
2022/11/07 10:48:04;;;;;;;4.75;0.35;;;13.60;99.90;;;;;;5069969;28;20473;-76
2022/11/07 10:50:30;;;;;;;13.00;1.38;;;13.70;99.90;;;;;;5070518;28;20116;-76
2022/11/07 10:53:02;;;;;;;6.60;0.10;;;13.80;99.90;;;;;;5071002;28;20047;-76
2022/11/07 10:55:40;;;;;;;6.15;0.82;;;13.90;99.90;;;;;;5071399;28;20044;-76
2022/11/07 10:58:06;;;;;;;2.75;0.25;;;14.20;99.90;;;;;;5071089;28;20067;-76
2022/11/07 11:00:33;;;;;;;6.32;0.20;;;13.90;99.90;;;;;;5070948;28;20108;-76
2022/11/07 11:02:59;;;;;;;17.80;2.00;;;14.00;99.90;;;;;;5069473;28;20503;-76
2022/11/07 11:05:24;;;;;;;10.05;0.65;;;14.10;99.90;;;;;;5070640;28;20021;-76
2022/11/07 11:07:51;;;;;;;11.77;0.20;;;14.10;99.90;;;;;;5070747;28;20032;-76
2022/11/07 11:10:26;;;;;;;8.57;1.02;;;14.10;99.90;;;;;;5070201;28;20017;-76
2022/11/07 11:12:52;;;;;;;4.25;0.55;;;14.00;99.90;;;;;;5070700;28;20426;-76
2022/11/07 11:15:21;;;;;;;12.60;1.50;;;14.00;99.90;;;;;;5070395;28;20052;-76
2022/11/07 11:17:57;;;;;;;;;;;13.90;99.90;;;;;;5069438;28;20479;-76
2022/11/07 11:20:39;;;;;;;7.53;0.60;;;13.90;99.90;;;;;;5058123;28;20031;-76
2022/11/07 11:23:17;;;;;;;8.20;0.47;;;13.90;99.90;;;;;;5057640;28;20025;-76
2022/11/07 11:25:48;;;;;;;8.35;0.40;;;13.80;99.90;;;;;;5055672;28;20148;-76
2022/11/07 11:28:26;;;;;;;8.10;0.40;;;13.80;99.90;;;;;;5055970;28;20029;-76
2022/11/07 11:30:57;;;;;;;7.85;0.40;;;13.90;99.90;;;;;;5056956;28;20104;-76
2022/11/07 11:33:29;;;;;;;6.75;0.32;;;13.80;99.90;;;;;;5056814;28;20478;-76
2022/11/07 11:36:01;;;;;;;6.03;0.57;;;13.90;99.90;;;;;;5055514;28;20040;-74
2022/11/07 11:38:36;;;;;;;2.70;0.60;;;14.00;99.90;;;;;;5055156;28;20029;-74
2022/11/07 11:41:22;;;;;;;5.97;0.45;;;13.90;99.90;;;;;;5054835;28;20020;-74
2022/11/07 11:44:11;;;;;;;2.90;0.20;;;14.00;99.90;;;;;;5054578;28;20029;-74
2022/11/07 11:46:47;;;;;;;7.53;0.68;;;13.90;99.90;;;;;;5051711;28;20037;-74
2022/11/07 11:49:39;;;;;;;9.23;0.90;;;14.00;99.90;;;;;;5054627;28;20115;-74
2022/11/07 11:52:14;;;;;;;8.30;1.27;;;13.90;99.90;;;;;;5055921;28;20600;-74
2022/11/07 11:54:41;;;;;;;3.60;0.30;;;13.90;99.90;;;;;;5055924;28;20017;-74
2022/11/07 11:57:29;;;;;;;6.68;0.70;;;14.00;99.90;;;;;;5056541;28;20029;-74
2022/11/07 12:00:03;;;;;;;7.15;0.40;;;14.10;99.90;;;;;;5055549;28;20044;-74
2022/11/07 12:02:45;;;;;;;7.50;1.30;;;14.10;99.90;;;;;;5055005;28;20484;-74
2022/11/07 12:05:33;;;;;;;9.50;0.68;;;14.10;99.90;;;;;;5054620;28;20036;-74
2022/11/07 12:08:29;;;;;;;9.57;0.50;;;14.10;99.90;;;;;;5055538;28;20033;-74
2022/11/07 12:11:09;;;;;;;10.35;1.00;;;14.10;99.90;;;;;;5055480;28;20049;-74
2022/11/07 12:13:47;;;;;;;12.88;1.52;;;14.10;99.90;;;;;;5055939;28;20017;-74
2022/11/07 12:16:31;;;;;;;8.20;1.35;;;14.10;99.90;;;;;;5055724;28;20108;-74
2022/11/07 12:19:15;;;;;;;8.25;0.55;;;14.10;99.90;;;;;;5053910;28;20025;-75
2022/11/07 12:21:57;;;;;;;6.88;0.22;;;14.00;99.90;;;;;;5053816;28;20483;-74
2022/11/07 12:24:32;;;;;;;5.25;0.85;;;13.90;99.90;;;;;;5053972;28;20044;-74
2022/11/07 12:27:05;;;;;;;6.97;0.10;;;13.90;99.90;;;;;;5053779;28;20025;-74
2022/11/07 12:29:49;;;;;;;8.57;0.73;;;14.00;99.90;;;;;;5053472;28;20084;-74
2022/11/07 12:32:34;;;;;;;5.50;1.10;;;14.10;99.90;;;;;;5054823;28;20017;-74
2022/11/07 12:35:21;;;;;;;9.00;0.43;;;14.00;99.90;;;;;;5054900;28;20400;-74
2022/11/07 12:37:46;;;;;;;8.70;0.50;;;14.10;99.90;;;;;;5055492;28;20120;-74
2022/11/07 12:40:47;;;;;;;5.75;0.32;;;14.10;99.90;;;;;;5054703;28;20056;-74
2022/11/07 12:43:22;;;;;;;11.45;0.52;;;14.20;99.90;;;;;;5053698;28;20028;-74
2022/11/07 12:45:50;;;;;;;7.50;0.30;;;14.20;99.90;;;;;;5054702;28;20029;-74
2022/11/07 12:48:42;;;;;;;10.60;0.50;;;14.30;99.90;;;;;;5053591;28;20029;-74
2022/11/07 12:51:20;;;;;;;12.32;0.40;;;14.30;99.90;;;;;;5055507;28;20383;-73
2022/11/07 12:54:23;;;;;;;10.13;0.33;;;14.20;99.90;;;;;;5054626;28;20036;-73
2022/11/07 12:56:51;;;;;;;8.40;0.70;;;14.30;99.90;;;;;;5053444;28;20036;-72
2022/11/07 12:59:26;;;;;;;8.73;0.20;;;14.40;99.90;;;;;;5053311;28;20036;-75
2022/11/07 13:02:03;;;;;;;7.43;0.82;;;14.30;99.90;;;;;;5054809;28;20025;-72
2022/11/07 13:04:35;;;;;;;5.72;0.65;;;14.30;99.90;;;;;;5054744;28;20548;-72
2022/11/07 13:07:13;;;;;;;7.30;0.40;;;14.30;99.90;;;;;;5053094;28;20037;-72
2022/11/07 13:09:51;;;;;;;;;;;14.30;99.90;;;;;;5054930;28;20053;-72
2022/11/07 13:12:33;;;;;;;10.30;0.77;;;14.30;99.90;;;;;;5054443;28;19905;-74